sensor_id;sensor_type;location;lat;lon;timestamp;temperature;humidity
29551;DHT22;16488;52.396;10.696;2023-06-04T00:01:57;10.30;99.90
29551;DHT22;16488;52.396;10.696;2023-06-04T00:04:24;10.30;99.90
29551;DHT22;16488;52.396;10.696;2023-06-04T00:06:50;10.10;99.90
29551;DHT22;16488;52.396;10.696;2023-06-04T00:09:16;10.00;99.90
29551;DHT22;16488;52.396;10.696;2023-06-04T00:11:41;10.10;99.90
29551;DHT22;16488;52.396;10.696;2023-06-04T00:14:07;10.00;99.90
29551;DHT22;16488;52.396;10.696;2023-06-04T00:16:33;9.80;99.90
29551;DHT22;16488;52.396;10.696;2023-06-04T00:19:01;9.60;99.90
29551;DHT22;16488;52.396;10.696;2023-06-04T00:21:26;9.40;99.90
29551;DHT22;16488;52.396;10.696;2023-06-04T00:23:52;9.40;99.90
29551;DHT22;16488;52.396;10.696;2023-06-04T00:26:18;9.30;99.90
29551;DHT22;16488;52.396;10.696;2023-06-04T00:28:44;9.00;99.90
29551;DHT22;16488;52.396;10.696;2023-06-04T00:31:09;8.90;99.90
29551;DHT22;16488;52.396;10.696;2023-06-04T00:33:35;8.80;99.90
29551;DHT22;16488;52.396;10.696;2023-06-04T00:36:01;8.60;99.90
29551;DHT22;16488;52.396;10.696;2023-06-04T00:38:27;8.90;99.90
29551;DHT22;16488;52.396;10.696;2023-06-04T00:40:53;9.10;99.90
29551;DHT22;16488;52.396;10.696;2023-06-04T00:43:18;9.00;99.90
29551;DHT22;16488;52.396;10.696;2023-06-04T00:45:44;8.70;99.90
29551;DHT22;16488;52.396;10.696;2023-06-04T00:48:11;8.40;99.90
29551;DHT22;16488;52.396;10.696;2023-06-04T00:50:36;8.30;99.90
29551;DHT22;16488;52.396;10.696;2023-06-04T00:53:04;8.10;99.90
29551;DHT22;16488;52.396;10.696;2023-06-04T00:55:30;8.30;99.90
29551;DHT22;16488;52.396;10.696;2023-06-04T00:57:57;8.30;99.90
29551;DHT22;16488;52.396;10.696;2023-06-04T01:00:22;8.10;99.90
29551;DHT22;16488;52.396;10.696;2023-06-04T01:02:49;8.30;99.90
29551;DHT22;16488;52.396;10.696;2023-06-04T01:08:02;8.40;99.90
29551;DHT22;16488;52.396;10.696;2023-06-04T01:10:27;8.10;99.90
29551;DHT22;16488;52.396;10.696;2023-06-04T01:12:53;7.80;99.90
29551;DHT22;16488;52.396;10.696;2023-06-04T01:15:18;7.60;99.90
29551;DHT22;16488;52.396;10.696;2023-06-04T01:17:48;7.40;99.90
29551;DHT22;16488;52.396;10.696;2023-06-04T01:20:24;7.50;99.90
29551;DHT22;16488;52.396;10.696;2023-06-04T01:25:34;7.90;99.90
29551;DHT22;16488;52.396;10.696;2023-06-04T01:28:02;7.60;99.90
29551;DHT22;16488;52.396;10.696;2023-06-04T01:30:31;7.40;99.90
29551;DHT22;16488;52.396;10.696;2023-06-04T01:32:59;7.30;99.90
29551;DHT22;16488;52.396;10.696;2023-06-04T01:35:26;7.30;99.90
29551;DHT22;16488;52.396;10.696;2023-06-04T01:37:52;7.10;99.90
29551;DHT22;16488;52.396;10.696;2023-06-04T01:40:18;7.00;99.90
29551;DHT22;16488;52.396;10.696;2023-06-04T01:42:44;7.30;99.90
29551;DHT22;16488;52.396;10.696;2023-06-04T01:45:10;7.30;99.90
29551;DHT22;16488;52.396;10.696;2023-06-04T01:47:36;7.20;99.90
29551;DHT22;16488;52.396;10.696;2023-06-04T01:50:03;7.20;99.90
29551;DHT22;16488;52.396;10.696;2023-06-04T01:52:29;7.20;99.90
29551;DHT22;16488;52.396;10.696;2023-06-04T01:54:54;7.20;99.90
29551;DHT22;16488;52.396;10.696;2023-06-04T01:57:21;7.10;99.90
29551;DHT22;16488;52.396;10.696;2023-06-04T01:59:48;7.00;99.90
29551;DHT22;16488;52.396;10.696;2023-06-04T02:02:13;6.90;99.90
29551;DHT22;16488;52.396;10.696;2023-06-04T02:04:40;7.10;99.90
29551;DHT22;16488;52.396;10.696;2023-06-04T02:07:09;7.00;99.90
29551;DHT22;16488;52.396;10.696;2023-06-04T02:09:35;6.90;99.90
29551;DHT22;16488;52.396;10.696;2023-06-04T02:12:01;6.80;99.90
29551;DHT22;16488;52.396;10.696;2023-06-04T02:14:27;6.70;99.90
29551;DHT22;16488;52.396;10.696;2023-06-04T02:16:53;6.60;99.90
29551;DHT22;16488;52.396;10.696;2023-06-04T02:19:24;6.50;99.90
29551;DHT22;16488;52.396;10.696;2023-06-04T02:21:51;6.40;99.90
29551;DHT22;16488;52.396;10.696;2023-06-04T02:24:17;6.40;99.90
29551;DHT22;16488;52.396;10.696;2023-06-04T02:26:43;6.30;99.90
29551;DHT22;16488;52.396;10.696;2023-06-04T02:29:08;6.30;99.90
29551;DHT22;16488;52.396;10.696;2023-06-04T02:31:34;6.20;99.90
29551;DHT22;16488;52.396;10.696;2023-06-04T02:33:59;6.20;99.90
29551;DHT22;16488;52.396;10.696;2023-06-04T02:36:25;6.10;99.90
29551;DHT22;16488;52.396;10.696;2023-06-04T02:38:51;6.10;99.90
29551;DHT22;16488;52.396;10.696;2023-06-04T02:41:16;6.00;99.90
29551;DHT22;16488;52.396;10.696;2023-06-04T02:43:42;5.90;99.90
29551;DHT22;16488;52.396;10.696;2023-06-04T02:46:07;5.90;99.90
29551;DHT22;16488;52.396;10.696;2023-06-04T02:48:33;5.90;99.90
29551;DHT22;16488;52.396;10.696;2023-06-04T02:50:58;5.80;99.90
29551;DHT22;16488;52.396;10.696;2023-06-04T02:53:24;5.80;99.90
29551;DHT22;16488;52.396;10.696;2023-06-04T02:55:50;5.90;99.90
29551;DHT22;16488;52.396;10.696;2023-06-04T02:58:18;6.00;99.90
29551;DHT22;16488;52.396;10.696;2023-06-04T03:00:44;6.00;99.90
29551;DHT22;16488;52.396;10.696;2023-06-04T03:03:10;6.00;99.90
29551;DHT22;16488;52.396;10.696;2023-06-04T03:05:36;5.80;99.90
29551;DHT22;16488;52.396;10.696;2023-06-04T03:08:02;5.80;99.90
29551;DHT22;16488;52.396;10.696;2023-06-04T03:10:29;5.70;99.90
29551;DHT22;16488;52.396;10.696;2023-06-04T03:12:56;5.70;99.90
29551;DHT22;16488;52.396;10.696;2023-06-04T03:15:22;5.60;99.90
29551;DHT22;16488;52.396;10.696;2023-06-04T03:17:47;5.70;99.90
29551;DHT22;16488;52.396;10.696;2023-06-04T03:20:14;5.60;99.90
29551;DHT22;16488;52.396;10.696;2023-06-04T03:22:39;5.60;99.90
29551;DHT22;16488;52.396;10.696;2023-06-04T03:25:05;5.80;99.90
29551;DHT22;16488;52.396;10.696;2023-06-04T03:27:32;5.80;99.90
29551;DHT22;16488;52.396;10.696;2023-06-04T03:29:58;5.70;99.90
29551;DHT22;16488;52.396;10.696;2023-06-04T03:32:24;5.90;99.90
29551;DHT22;16488;52.396;10.696;2023-06-04T03:34:50;6.10;99.90
29551;DHT22;16488;52.396;10.696;2023-06-04T03:37:17;6.20;99.90
29551;DHT22;16488;52.396;10.696;2023-06-04T03:39:43;6.50;99.90
29551;DHT22;16488;52.396;10.696;2023-06-04T03:42:08;6.50;99.90
29551;DHT22;16488;52.396;10.696;2023-06-04T03:44:34;6.60;99.90
29551;DHT22;16488;52.396;10.696;2023-06-04T03:47:00;6.40;99.90
29551;DHT22;16488;52.396;10.696;2023-06-04T03:49:25;6.20;99.90
29551;DHT22;16488;52.396;10.696;2023-06-04T03:51:51;6.20;99.90
29551;DHT22;16488;52.396;10.696;2023-06-04T03:54:16;6.10;99.90
29551;DHT22;16488;52.396;10.696;2023-06-04T03:56:46;6.10;99.90
29551;DHT22;16488;52.396;10.696;2023-06-04T03:59:12;6.10;99.90
29551;DHT22;16488;52.396;10.696;2023-06-04T04:01:38;6.10;99.90
29551;DHT22;16488;52.396;10.696;2023-06-04T04:04:04;6.10;99.90
29551;DHT22;16488;52.396;10.696;2023-06-04T04:06:30;6.10;99.90
29551;DHT22;16488;52.396;10.696;2023-06-04T04:08:55;6.10;99.90
29551;DHT22;16488;52.396;10.696;2023-06-04T04:11:21;6.10;99.90
29551;DHT22;16488;52.396;10.696;2023-06-04T04:13:47;6.20;99.90
29551;DHT22;16488;52.396;10.696;2023-06-04T04:16:13;6.30;99.90
29551;DHT22;16488;52.396;10.696;2023-06-04T04:18:41;6.30;99.90
29551;DHT22;16488;52.396;10.696;2023-06-04T04:21:08;6.30;99.90
29551;DHT22;16488;52.396;10.696;2023-06-04T04:23:33;6.40;99.90
29551;DHT22;16488;52.396;10.696;2023-06-04T04:25:59;6.50;99.90
29551;DHT22;16488;52.396;10.696;2023-06-04T04:28:28;6.60;99.90
29551;DHT22;16488;52.396;10.696;2023-06-04T04:30:56;6.70;99.90
29551;DHT22;16488;52.396;10.696;2023-06-04T04:33:23;6.80;99.90
29551;DHT22;16488;52.396;10.696;2023-06-04T04:35:50;6.90;99.90
29551;DHT22;16488;52.396;10.696;2023-06-04T04:38:16;7.10;99.90
29551;DHT22;16488;52.396;10.696;2023-06-04T04:40:43;7.30;99.90
29551;DHT22;16488;52.396;10.696;2023-06-04T04:43:09;7.50;99.90
29551;DHT22;16488;52.396;10.696;2023-06-04T04:45:34;7.70;99.90
29551;DHT22;16488;52.396;10.696;2023-06-04T04:48:00;7.80;99.90
29551;DHT22;16488;52.396;10.696;2023-06-04T04:50:25;7.90;99.90
29551;DHT22;16488;52.396;10.696;2023-06-04T04:52:51;8.10;99.90
29551;DHT22;16488;52.396;10.696;2023-06-04T04:55:17;8.20;99.90
29551;DHT22;16488;52.396;10.696;2023-06-04T04:57:42;8.30;99.90
29551;DHT22;16488;52.396;10.696;2023-06-04T05:00:08;8.50;99.90
29551;DHT22;16488;52.396;10.696;2023-06-04T05:02:35;8.60;99.90
29551;DHT22;16488;52.396;10.696;2023-06-04T05:05:01;8.80;99.90
29551;DHT22;16488;52.396;10.696;2023-06-04T05:07:27;8.80;99.90
29551;DHT22;16488;52.396;10.696;2023-06-04T05:09:53;9.00;99.90
29551;DHT22;16488;52.396;10.696;2023-06-04T05:12:18;9.20;99.90
29551;DHT22;16488;52.396;10.696;2023-06-04T05:14:44;9.40;99.90
29551;DHT22;16488;52.396;10.696;2023-06-04T05:17:10;9.50;99.90
29551;DHT22;16488;52.396;10.696;2023-06-04T05:19:36;9.60;99.90
29551;DHT22;16488;52.396;10.696;2023-06-04T05:22:02;9.70;99.90
29551;DHT22;16488;52.396;10.696;2023-06-04T05:24:28;9.90;99.90
29551;DHT22;16488;52.396;10.696;2023-06-04T05:26:55;10.10;99.90
29551;DHT22;16488;52.396;10.696;2023-06-04T05:29:22;10.10;99.90
29551;DHT22;16488;52.396;10.696;2023-06-04T05:31:48;10.30;99.90
29551;DHT22;16488;52.396;10.696;2023-06-04T05:34:13;10.30;99.90
29551;DHT22;16488;52.396;10.696;2023-06-04T05:36:42;10.50;99.90
29551;DHT22;16488;52.396;10.696;2023-06-04T05:39:08;10.70;99.90
29551;DHT22;16488;52.396;10.696;2023-06-04T05:41:35;10.80;99.90
29551;DHT22;16488;52.396;10.696;2023-06-04T05:44:01;11.00;99.90
29551;DHT22;16488;52.396;10.696;2023-06-04T05:46:27;11.10;99.90
29551;DHT22;16488;52.396;10.696;2023-06-04T05:48:53;11.30;99.90
29551;DHT22;16488;52.396;10.696;2023-06-04T05:51:19;11.40;99.90
29551;DHT22;16488;52.396;10.696;2023-06-04T05:53:45;11.50;99.90
29551;DHT22;16488;52.396;10.696;2023-06-04T05:56:11;11.60;99.90
29551;DHT22;16488;52.396;10.696;2023-06-04T05:58:36;11.80;99.90
29551;DHT22;16488;52.396;10.696;2023-06-04T06:01:03;11.90;99.90
29551;DHT22;16488;52.396;10.696;2023-06-04T06:03:28;12.10;99.90
29551;DHT22;16488;52.396;10.696;2023-06-04T06:05:54;12.20;99.90
29551;DHT22;16488;52.396;10.696;2023-06-04T06:08:20;12.40;99.90
29551;DHT22;16488;52.396;10.696;2023-06-04T06:10:46;12.50;99.90
29551;DHT22;16488;52.396;10.696;2023-06-04T06:13:12;12.70;99.90
29551;DHT22;16488;52.396;10.696;2023-06-04T06:15:38;12.80;99.90
29551;DHT22;16488;52.396;10.696;2023-06-04T06:18:04;12.90;99.90
29551;DHT22;16488;52.396;10.696;2023-06-04T06:20:30;13.00;99.90
29551;DHT22;16488;52.396;10.696;2023-06-04T06:22:55;13.10;99.90
29551;DHT22;16488;52.396;10.696;2023-06-04T06:25:21;13.20;99.90
29551;DHT22;16488;52.396;10.696;2023-06-04T06:27:46;13.30;99.90
29551;DHT22;16488;52.396;10.696;2023-06-04T06:30:13;13.50;99.90
29551;DHT22;16488;52.396;10.696;2023-06-04T06:32:40;13.60;99.90
29551;DHT22;16488;52.396;10.696;2023-06-04T06:35:06;13.70;99.20
29551;DHT22;16488;52.396;10.696;2023-06-04T06:37:33;13.80;98.60
29551;DHT22;16488;52.396;10.696;2023-06-04T06:39:58;13.90;98.10
29551;DHT22;16488;52.396;10.696;2023-06-04T06:42:24;14.10;97.70
29551;DHT22;16488;52.396;10.696;2023-06-04T06:44:50;14.20;97.30
29551;DHT22;16488;52.396;10.696;2023-06-04T06:47:16;14.30;96.90
29551;DHT22;16488;52.396;10.696;2023-06-04T06:49:42;14.50;96.90
29551;DHT22;16488;52.396;10.696;2023-06-04T06:52:07;14.60;96.40
29551;DHT22;16488;52.396;10.696;2023-06-04T06:54:33;14.70;95.60
29551;DHT22;16488;52.396;10.696;2023-06-04T06:56:59;14.70;95.10
29551;DHT22;16488;52.396;10.696;2023-06-04T06:59:24;14.90;94.50
29551;DHT22;16488;52.396;10.696;2023-06-04T07:01:50;15.00;93.90
29551;DHT22;16488;52.396;10.696;2023-06-04T07:04:16;15.10;93.80
29551;DHT22;16488;52.396;10.696;2023-06-04T07:06:42;15.20;93.50
29551;DHT22;16488;52.396;10.696;2023-06-04T07:09:08;15.30;93.50
29551;DHT22;16488;52.396;10.696;2023-06-04T07:11:34;15.40;93.20
29551;DHT22;16488;52.396;10.696;2023-06-04T07:14:00;15.50;93.00
29551;DHT22;16488;52.396;10.696;2023-06-04T07:16:28;15.50;93.10
29551;DHT22;16488;52.396;10.696;2023-06-04T07:18:53;15.60;93.40
29551;DHT22;16488;52.396;10.696;2023-06-04T07:21:19;15.60;93.30
29551;DHT22;16488;52.396;10.696;2023-06-04T07:23:47;15.80;92.70
29551;DHT22;16488;52.396;10.696;2023-06-04T07:26:15;15.80;92.60
29551;DHT22;16488;52.396;10.696;2023-06-04T07:28:41;15.90;92.20
29551;DHT22;16488;52.396;10.696;2023-06-04T07:31:07;16.00;91.70
29551;DHT22;16488;52.396;10.696;2023-06-04T07:33:32;16.00;91.10
29551;DHT22;16488;52.396;10.696;2023-06-04T07:35:58;16.10;91.30
29551;DHT22;16488;52.396;10.696;2023-06-04T07:38:24;16.20;90.60
29551;DHT22;16488;52.396;10.696;2023-06-04T07:40:50;16.30;90.00
29551;DHT22;16488;52.396;10.696;2023-06-04T07:43:16;16.40;88.60
29551;DHT22;16488;52.396;10.696;2023-06-04T07:45:41;16.40;87.30
29551;DHT22;16488;52.396;10.696;2023-06-04T07:48:09;16.40;86.20
29551;DHT22;16488;52.396;10.696;2023-06-04T07:50:36;16.50;85.50
29551;DHT22;16488;52.396;10.696;2023-06-04T07:53:01;16.60;82.70
29551;DHT22;16488;52.396;10.696;2023-06-04T07:55:27;16.60;81.20
29551;DHT22;16488;52.396;10.696;2023-06-04T07:57:52;16.70;81.50
29551;DHT22;16488;52.396;10.696;2023-06-04T08:00:18;16.70;81.50
29551;DHT22;16488;52.396;10.696;2023-06-04T08:02:44;16.70;82.20
29551;DHT22;16488;52.396;10.696;2023-06-04T08:05:10;16.90;82.30
29551;DHT22;16488;52.396;10.696;2023-06-04T08:07:35;17.00;80.40
29551;DHT22;16488;52.396;10.696;2023-06-04T08:10:01;17.10;80.40
29551;DHT22;16488;52.396;10.696;2023-06-04T08:12:27;17.30;78.90
29551;DHT22;16488;52.396;10.696;2023-06-04T08:14:52;17.30;78.10
29551;DHT22;16488;52.396;10.696;2023-06-04T08:17:22;17.40;78.50
29551;DHT22;16488;52.396;10.696;2023-06-04T08:19:47;17.40;76.30
29551;DHT22;16488;52.396;10.696;2023-06-04T08:22:13;17.50;75.10
29551;DHT22;16488;52.396;10.696;2023-06-04T08:24:39;17.70;74.10
29551;DHT22;16488;52.396;10.696;2023-06-04T08:27:05;17.70;73.30
29551;DHT22;16488;52.396;10.696;2023-06-04T08:29:32;18.00;73.70
29551;DHT22;16488;52.396;10.696;2023-06-04T08:31:58;18.10;73.00
29551;DHT22;16488;52.396;10.696;2023-06-04T08:34:23;18.10;72.30
29551;DHT22;16488;52.396;10.696;2023-06-04T08:36:49;18.30;72.70
29551;DHT22;16488;52.396;10.696;2023-06-04T08:39:15;18.40;71.90
29551;DHT22;16488;52.396;10.696;2023-06-04T08:41:48;18.30;71.40
29551;DHT22;16488;52.396;10.696;2023-06-04T08:44:16;18.40;72.50
29551;DHT22;16488;52.396;10.696;2023-06-04T08:46:43;18.50;71.10
29551;DHT22;16488;52.396;10.696;2023-06-04T08:49:12;18.60;68.70
29551;DHT22;16488;52.396;10.696;2023-06-04T08:51:38;18.60;69.10
29551;DHT22;16488;52.396;10.696;2023-06-04T08:54:07;18.60;67.70
29551;DHT22;16488;52.396;10.696;2023-06-04T08:56:34;18.50;65.30
29551;DHT22;16488;52.396;10.696;2023-06-04T08:59:01;18.70;66.00
29551;DHT22;16488;52.396;10.696;2023-06-04T09:01:28;18.70;64.40
29551;DHT22;16488;52.396;10.696;2023-06-04T09:03:55;18.60;64.50
29551;DHT22;16488;52.396;10.696;2023-06-04T09:06:26;18.80;63.50
29551;DHT22;16488;52.396;10.696;2023-06-04T09:08:54;18.70;62.70
29551;DHT22;16488;52.396;10.696;2023-06-04T09:11:22;18.70;62.70
29551;DHT22;16488;52.396;10.696;2023-06-04T09:13:50;18.80;62.70
29551;DHT22;16488;52.396;10.696;2023-06-04T09:16:16;18.90;62.20
29551;DHT22;16488;52.396;10.696;2023-06-04T09:18:42;18.90;63.40
29551;DHT22;16488;52.396;10.696;2023-06-04T09:21:08;19.00;62.20
29551;DHT22;16488;52.396;10.696;2023-06-04T09:23:44;19.10;61.80
29551;DHT22;16488;52.396;10.696;2023-06-04T09:26:10;19.20;63.70
29551;DHT22;16488;52.396;10.696;2023-06-04T09:28:43;19.40;60.10
29551;DHT22;16488;52.396;10.696;2023-06-04T09:31:14;19.40;58.60
29551;DHT22;16488;52.396;10.696;2023-06-04T09:33:48;19.40;58.20
29551;DHT22;16488;52.396;10.696;2023-06-04T09:36:14;19.50;58.00
29551;DHT22;16488;52.396;10.696;2023-06-04T09:38:41;19.50;57.80
29551;DHT22;16488;52.396;10.696;2023-06-04T09:41:14;19.60;57.80
29551;DHT22;16488;52.396;10.696;2023-06-04T09:43:40;19.50;57.20
29551;DHT22;16488;52.396;10.696;2023-06-04T09:48:39;19.50;57.50
29551;DHT22;16488;52.396;10.696;2023-06-04T09:53:37;19.50;57.90
29551;DHT22;16488;52.396;10.696;2023-06-04T09:56:04;19.50;57.50
29551;DHT22;16488;52.396;10.696;2023-06-04T09:58:32;19.70;57.60
29551;DHT22;16488;52.396;10.696;2023-06-04T10:00:58;19.80;58.80
29551;DHT22;16488;52.396;10.696;2023-06-04T10:03:25;19.90;56.60
29551;DHT22;16488;52.396;10.696;2023-06-04T10:05:53;20.00;56.40
29551;DHT22;16488;52.396;10.696;2023-06-04T10:08:22;20.20;55.90
29551;DHT22;16488;52.396;10.696;2023-06-04T10:10:54;20.10;55.10
29551;DHT22;16488;52.396;10.696;2023-06-04T10:13:21;20.10;54.60
29551;DHT22;16488;52.396;10.696;2023-06-04T10:15:49;20.20;55.90
29551;DHT22;16488;52.396;10.696;2023-06-04T10:18:15;20.30;56.60
29551;DHT22;16488;52.396;10.696;2023-06-04T10:20:42;20.40;54.90
29551;DHT22;16488;52.396;10.696;2023-06-04T10:23:08;20.40;54.70
29551;DHT22;16488;52.396;10.696;2023-06-04T10:25:37;20.30;54.60
29551;DHT22;16488;52.396;10.696;2023-06-04T10:28:03;20.40;53.80
29551;DHT22;16488;52.396;10.696;2023-06-04T10:30:29;20.20;53.70
29551;DHT22;16488;52.396;10.696;2023-06-04T10:32:56;20.30;53.60
29551;DHT22;16488;52.396;10.696;2023-06-04T10:35:35;20.30;54.10
29551;DHT22;16488;52.396;10.696;2023-06-04T10:38:08;20.20;53.50
29551;DHT22;16488;52.396;10.696;2023-06-04T10:40:35;20.20;52.30
29551;DHT22;16488;52.396;10.696;2023-06-04T10:43:10;20.20;52.70
29551;DHT22;16488;52.396;10.696;2023-06-04T10:45:37;20.10;51.30
29551;DHT22;16488;52.396;10.696;2023-06-04T10:48:04;20.30;51.70
29551;DHT22;16488;52.396;10.696;2023-06-04T10:50:31;20.20;50.20
29551;DHT22;16488;52.396;10.696;2023-06-04T10:52:58;20.30;50.20
29551;DHT22;16488;52.396;10.696;2023-06-04T10:55:24;20.30;50.10
29551;DHT22;16488;52.396;10.696;2023-06-04T10:57:59;20.30;49.90
29551;DHT22;16488;52.396;10.696;2023-06-04T11:00:40;20.40;50.60
29551;DHT22;16488;52.396;10.696;2023-06-04T11:03:07;20.40;52.10
29551;DHT22;16488;52.396;10.696;2023-06-04T11:05:37;20.50;52.20
29551;DHT22;16488;52.396;10.696;2023-06-04T11:08:04;20.60;51.10
29551;DHT22;16488;52.396;10.696;2023-06-04T11:10:38;20.50;51.20
29551;DHT22;16488;52.396;10.696;2023-06-04T11:13:05;20.60;50.60
29551;DHT22;16488;52.396;10.696;2023-06-04T11:15:45;20.80;52.60
29551;DHT22;16488;52.396;10.696;2023-06-04T11:18:16;21.00;51.00
29551;DHT22;16488;52.396;10.696;2023-06-04T11:20:41;21.10;50.90
29551;DHT22;16488;52.396;10.696;2023-06-04T11:23:08;21.00;49.10
29551;DHT22;16488;52.396;10.696;2023-06-04T11:25:33;21.00;49.90
29551;DHT22;16488;52.396;10.696;2023-06-04T11:28:00;20.80;49.70
29551;DHT22;16488;52.396;10.696;2023-06-04T11:30:27;20.90;49.50
29551;DHT22;16488;52.396;10.696;2023-06-04T11:33:03;20.90;49.50
29551;DHT22;16488;52.396;10.696;2023-06-04T11:35:30;21.00;49.90
29551;DHT22;16488;52.396;10.696;2023-06-04T11:37:56;21.10;49.20
29551;DHT22;16488;52.396;10.696;2023-06-04T11:40:22;21.20;48.50
29551;DHT22;16488;52.396;10.696;2023-06-04T11:42:49;21.10;48.20
29551;DHT22;16488;52.396;10.696;2023-06-04T11:45:17;21.00;47.30
29551;DHT22;16488;52.396;10.696;2023-06-04T11:47:51;20.90;46.80
29551;DHT22;16488;52.396;10.696;2023-06-04T11:50:18;21.00;47.70
29551;DHT22;16488;52.396;10.696;2023-06-04T11:52:43;21.10;46.80
29551;DHT22;16488;52.396;10.696;2023-06-04T11:55:11;21.20;46.30
29551;DHT22;16488;52.396;10.696;2023-06-04T11:57:38;21.10;46.70
29551;DHT22;16488;52.396;10.696;2023-06-04T12:00:07;21.20;46.70
29551;DHT22;16488;52.396;10.696;2023-06-04T12:02:55;21.30;48.10
29551;DHT22;16488;52.396;10.696;2023-06-04T12:05:22;21.40;45.40
29551;DHT22;16488;52.396;10.696;2023-06-04T12:07:49;21.40;45.90
29551;DHT22;16488;52.396;10.696;2023-06-04T12:10:16;21.50;46.20
29551;DHT22;16488;52.396;10.696;2023-06-04T12:12:42;21.50;45.90
29551;DHT22;16488;52.396;10.696;2023-06-04T12:15:08;21.60;47.30
29551;DHT22;16488;52.396;10.696;2023-06-04T12:17:36;21.50;46.90
29551;DHT22;16488;52.396;10.696;2023-06-04T12:20:02;21.60;45.70
29551;DHT22;16488;52.396;10.696;2023-06-04T12:22:30;21.60;44.10
29551;DHT22;16488;52.396;10.696;2023-06-04T12:24:57;21.60;44.10
29551;DHT22;16488;52.396;10.696;2023-06-04T12:27:26;21.60;45.00
29551;DHT22;16488;52.396;10.696;2023-06-04T12:30:17;21.80;44.50
29551;DHT22;16488;52.396;10.696;2023-06-04T12:32:43;21.80;44.40
29551;DHT22;16488;52.396;10.696;2023-06-04T12:35:10;21.70;42.80
29551;DHT22;16488;52.396;10.696;2023-06-04T12:37:37;21.70;43.90
29551;DHT22;16488;52.396;10.696;2023-06-04T12:40:02;21.80;43.90
29551;DHT22;16488;52.396;10.696;2023-06-04T12:42:29;21.80;44.10
29551;DHT22;16488;52.396;10.696;2023-06-04T12:44:55;21.90;44.00
29551;DHT22;16488;52.396;10.696;2023-06-04T12:47:21;22.00;43.80
29551;DHT22;16488;52.396;10.696;2023-06-04T12:49:47;22.10;45.50
29551;DHT22;16488;52.396;10.696;2023-06-04T12:52:12;22.20;45.50
29551;DHT22;16488;52.396;10.696;2023-06-04T12:54:42;22.20;45.10
29551;DHT22;16488;52.396;10.696;2023-06-04T12:57:07;22.40;43.50
29551;DHT22;16488;52.396;10.696;2023-06-04T12:59:33;22.10;43.90
29551;DHT22;16488;52.396;10.696;2023-06-04T13:02:00;22.10;45.10
29551;DHT22;16488;52.396;10.696;2023-06-04T13:04:25;22.30;45.00
29551;DHT22;16488;52.396;10.696;2023-06-04T13:06:51;22.20;43.90
29551;DHT22;16488;52.396;10.696;2023-06-04T13:09:25;22.20;43.20
29551;DHT22;16488;52.396;10.696;2023-06-04T13:11:51;22.10;44.00
29551;DHT22;16488;52.396;10.696;2023-06-04T13:14:17;21.70;43.10
29551;DHT22;16488;52.396;10.696;2023-06-04T13:16:42;21.80;44.40
29551;DHT22;16488;52.396;10.696;2023-06-04T13:19:08;21.90;45.40
29551;DHT22;16488;52.396;10.696;2023-06-04T13:21:34;21.90;44.20
29551;DHT22;16488;52.396;10.696;2023-06-04T13:24:00;22.10;46.00
29551;DHT22;16488;52.396;10.696;2023-06-04T13:26:26;22.20;45.80
29551;DHT22;16488;52.396;10.696;2023-06-04T13:28:52;22.20;44.80
29551;DHT22;16488;52.396;10.696;2023-06-04T13:31:17;22.20;43.40
29551;DHT22;16488;52.396;10.696;2023-06-04T13:33:43;22.20;45.10
29551;DHT22;16488;52.396;10.696;2023-06-04T13:36:09;22.30;44.80
29551;DHT22;16488;52.396;10.696;2023-06-04T13:38:35;22.50;43.50
29551;DHT22;16488;52.396;10.696;2023-06-04T13:41:00;22.40;43.70
29551;DHT22;16488;52.396;10.696;2023-06-04T13:43:26;22.40;46.10
29551;DHT22;16488;52.396;10.696;2023-06-04T13:45:52;22.50;43.10
29551;DHT22;16488;52.396;10.696;2023-06-04T13:48:18;22.50;43.50
29551;DHT22;16488;52.396;10.696;2023-06-04T13:50:44;22.50;46.30
29551;DHT22;16488;52.396;10.696;2023-06-04T13:53:10;22.60;45.00
29551;DHT22;16488;52.396;10.696;2023-06-04T13:55:36;22.70;44.90
29551;DHT22;16488;52.396;10.696;2023-06-04T13:58:01;22.60;44.30
29551;DHT22;16488;52.396;10.696;2023-06-04T14:00:27;22.70;44.00
29551;DHT22;16488;52.396;10.696;2023-06-04T14:02:55;22.70;43.70
29551;DHT22;16488;52.396;10.696;2023-06-04T14:05:21;22.50;43.60
29551;DHT22;16488;52.396;10.696;2023-06-04T14:07:47;22.60;44.70
29551;DHT22;16488;52.396;10.696;2023-06-04T14:10:13;22.60;45.50
29551;DHT22;16488;52.396;10.696;2023-06-04T14:12:39;22.60;44.20
29551;DHT22;16488;52.396;10.696;2023-06-04T14:15:07;22.70;45.50
29551;DHT22;16488;52.396;10.696;2023-06-04T14:17:33;22.80;45.30
29551;DHT22;16488;52.396;10.696;2023-06-04T14:20:00;23.00;44.70
29551;DHT22;16488;52.396;10.696;2023-06-04T14:22:26;22.90;44.40
29551;DHT22;16488;52.396;10.696;2023-06-04T14:24:51;23.00;45.40
29551;DHT22;16488;52.396;10.696;2023-06-04T14:27:17;23.00;43.10
29551;DHT22;16488;52.396;10.696;2023-06-04T14:29:42;22.90;42.80
29551;DHT22;16488;52.396;10.696;2023-06-04T14:32:08;23.00;43.40
29551;DHT22;16488;52.396;10.696;2023-06-04T14:34:34;23.00;45.20
29551;DHT22;16488;52.396;10.696;2023-06-04T14:37:00;23.00;42.70
29551;DHT22;16488;52.396;10.696;2023-06-04T14:39:27;23.00;42.70
29551;DHT22;16488;52.396;10.696;2023-06-04T14:41:53;23.20;43.80
29551;DHT22;16488;52.396;10.696;2023-06-04T14:44:18;23.10;43.30
29551;DHT22;16488;52.396;10.696;2023-06-04T14:46:44;23.10;43.70
29551;DHT22;16488;52.396;10.696;2023-06-04T14:49:10;23.20;43.00
29551;DHT22;16488;52.396;10.696;2023-06-04T14:51:36;23.20;43.40
29551;DHT22;16488;52.396;10.696;2023-06-04T14:54:02;23.30;44.80
29551;DHT22;16488;52.396;10.696;2023-06-04T14:56:27;23.40;43.30
29551;DHT22;16488;52.396;10.696;2023-06-04T14:58:54;23.40;42.40
29551;DHT22;16488;52.396;10.696;2023-06-04T15:01:19;23.40;43.50
29551;DHT22;16488;52.396;10.696;2023-06-04T15:03:48;23.40;43.50
29551;DHT22;16488;52.396;10.696;2023-06-04T15:06:13;23.30;43.40
29551;DHT22;16488;52.396;10.696;2023-06-04T15:08:39;23.30;43.70
29551;DHT22;16488;52.396;10.696;2023-06-04T15:11:04;23.40;44.30
29551;DHT22;16488;52.396;10.696;2023-06-04T15:13:30;23.50;47.10
29551;DHT22;16488;52.396;10.696;2023-06-04T15:15:56;23.50;45.40
29551;DHT22;16488;52.396;10.696;2023-06-04T15:18:21;23.40;44.20
29551;DHT22;16488;52.396;10.696;2023-06-04T15:20:47;23.30;43.70
29551;DHT22;16488;52.396;10.696;2023-06-04T15:23:12;23.30;43.60
29551;DHT22;16488;52.396;10.696;2023-06-04T15:25:38;23.30;44.10
29551;DHT22;16488;52.396;10.696;2023-06-04T15:28:05;23.40;45.90